Time;durP1;ratioP1;P1;durP2;ratioP2;P2;SDS_P1;SDS_P2;PMS_P1;PMS_P2;Temp;Humidity;BMP_temperature;BMP_pressure;BME280_temperature;BME280_humidity;BME280_pressure;Samples;Min_cycle;Max_cycle;Signal;HPM_P1;HPM_P2
2023/02/09 00:01:18;;;;;;;12.60;6.75;;;-5.20;99.90;;;;;;5065415;28;20205;-74
2023/02/09 00:03:45;;;;;;;10.38;7.57;;;-5.20;99.90;;;;;;5065930;28;20224;-74
2023/02/09 00:06:15;;;;;;;6.22;5.60;;;-5.20;99.90;;;;;;5065648;28;20224;-74
2023/02/09 00:08:42;;;;;;;17.02;7.65;;;-5.20;99.90;;;;;;5065406;28;20228;-74
2023/02/09 00:11:10;;;;;;;8.35;6.35;;;-5.20;99.90;;;;;;5065637;28;20201;-74
2023/02/09 00:13:37;;;;;;;14.23;7.13;;;-5.20;99.90;;;;;;5065000;28;20696;-74
2023/02/09 00:16:04;;;;;;;6.95;5.78;;;-5.20;99.90;;;;;;5067051;28;20228;-74
2023/02/09 00:18:33;;;;;;;11.38;6.53;;;-5.20;99.90;;;;;;5068602;28;20239;-73
2023/02/09 00:21:02;;;;;;;10.48;5.78;;;-5.20;99.90;;;;;;5069007;28;20718;-73
2023/02/09 00:23:30;;;;;;;12.15;6.43;;;-5.30;99.90;;;;;;5068358;28;20204;-74
2023/02/09 00:25:59;;;;;;;10.32;6.30;;;-5.30;99.90;;;;;;5068693;28;20887;-74
2023/02/09 00:28:26;;;;;;;9.38;5.25;;;-5.30;99.90;;;;;;5068055;28;20246;-74
2023/02/09 00:30:53;;;;;;;11.43;6.40;;;-5.30;99.90;;;;;;5068935;28;20212;-74
2023/02/09 00:33:20;;;;;;;9.07;6.40;;;-5.30;99.90;;;;;;5068912;28;20197;-74
2023/02/09 00:35:48;;;;;;;10.30;5.07;;;-5.30;99.90;;;;;;5068617;28;20226;-74
2023/02/09 00:38:15;;;;;;;8.50;5.85;;;-5.30;99.90;;;;;;5068259;28;20201;-74
2023/02/09 00:40:42;;;;;;;11.63;7.50;;;-5.30;99.90;;;;;;5071221;28;20235;-75
2023/02/09 00:43:10;;;;;;;8.63;6.55;;;-5.40;99.90;;;;;;5069359;28;20208;-73
2023/02/09 00:45:37;;;;;;;15.82;6.05;;;-5.40;99.90;;;;;;5068213;28;20204;-73
2023/02/09 00:48:04;;;;;;;13.60;7.07;;;-5.50;99.90;;;;;;5068214;28;20216;-73
2023/02/09 00:50:30;;;;;;;11.13;6.13;;;-5.50;99.90;;;;;;5068009;28;20224;-76
2023/02/09 00:52:58;;;;;;;10.77;7.53;;;-5.50;99.90;;;;;;5068208;28;20196;-73
2023/02/09 00:55:25;;;;;;;12.30;7.57;;;-5.50;99.90;;;;;;5068766;28;20227;-72
2023/02/09 00:57:52;;;;;;;6.28;5.22;;;-5.50;99.90;;;;;;5068600;28;20205;-74
2023/02/09 01:00:19;;;;;;;7.85;5.30;;;-5.60;99.90;;;;;;5067892;28;20865;-74
2023/02/09 01:02:46;;;;;;;7.10;5.43;;;-5.60;99.90;;;;;;5068663;28;20251;-72
2023/02/09 01:05:12;;;;;;;8.55;4.90;;;-5.60;99.90;;;;;;5068272;28;20203;-74
2023/02/09 01:07:39;;;;;;;9.18;5.97;;;-5.60;99.90;;;;;;5068395;28;20228;-74
2023/02/09 01:10:09;;;;;;;11.18;5.97;;;-5.60;99.90;;;;;;5067646;28;20228;-74
2023/02/09 01:12:38;;;;;;;9.98;5.90;;;-5.70;99.90;;;;;;5068205;28;20196;-74
2023/02/09 01:15:05;;;;;;;8.57;5.25;;;-5.70;99.90;;;;;;5067711;28;20211;-74
2023/02/09 01:17:32;;;;;;;11.02;5.10;;;-5.70;99.90;;;;;;5067838;28;20225;-74
2023/02/09 01:19:59;;;;;;;8.90;7.20;;;-5.80;99.90;;;;;;5067151;28;20691;-73
2023/02/09 01:22:26;;;;;;;8.90;5.22;;;-5.80;99.90;;;;;;5066983;28;20203;-74
2023/02/09 01:24:52;;;;;;;19.00;8.25;;;-5.70;99.90;;;;;;5068378;28;20200;-74
2023/02/09 01:27:20;;;;;;;12.57;6.60;;;-5.70;99.90;;;;;;5068118;28;20722;-74
2023/02/09 01:29:47;;;;;;;10.85;4.70;;;-5.80;99.90;;;;;;5067920;28;20235;-74
2023/02/09 01:32:14;;;;;;;10.48;5.18;;;-5.80;99.90;;;;;;5068134;28;20219;-74
2023/02/09 01:34:41;;;;;;;8.00;5.13;;;-5.80;99.90;;;;;;5068965;28;20698;-74
2023/02/09 01:37:07;;;;;;;14.93;5.85;;;-5.80;99.90;;;;;;5068055;28;20220;-74
2023/02/09 01:39:34;;;;;;;11.23;6.40;;;-5.80;99.90;;;;;;5068038;28;20204;-74
2023/02/09 01:42:02;;;;;;;10.85;7.00;;;-5.80;99.90;;;;;;5068239;28;20215;-74
2023/02/09 01:45:06;;;;;;;12.50;6.93;;;-5.80;99.90;;;;;;5068322;28;20204;-74
2023/02/09 01:47:36;;;;;;;10.13;6.13;;;-5.90;99.90;;;;;;5068657;28;20224;-74
2023/02/09 01:50:03;;;;;;;11.93;5.47;;;-5.90;99.90;;;;;;5068899;28;20220;-74
2023/02/09 01:52:30;;;;;;;14.77;7.07;;;-5.90;99.90;;;;;;5069816;28;20232;-74
2023/02/09 01:55:02;;;;;;;9.00;6.45;;;-6.00;99.90;;;;;;5069454;28;20598;-75
2023/02/09 01:57:33;;;;;;;7.05;5.20;;;-6.00;99.90;;;;;;5072903;28;20246;-74
2023/02/09 02:00:08;;;;;;;9.25;6.72;;;-6.10;99.90;;;;;;5073482;28;20200;-74
2023/02/09 02:02:34;;;;;;;9.45;5.97;;;-6.10;99.90;;;;;;5074346;28;20656;-74
2023/02/09 02:05:02;;;;;;;9.07;6.15;;;-6.10;99.90;;;;;;5072373;28;20196;-74
2023/02/09 02:07:36;;;;;;;9.75;5.85;;;-6.10;99.90;;;;;;5072307;28;20228;-74
2023/02/09 02:10:03;;;;;;;6.90;4.70;;;-6.10;99.90;;;;;;5071117;28;20224;-75
2023/02/09 02:12:31;;;;;;;11.75;5.22;;;-6.10;99.90;;;;;;5071690;28;20200;-74
2023/02/09 02:14:58;;;;;;;10.52;5.47;;;-6.00;99.90;;;;;;5071282;28;20207;-74
2023/02/09 02:17:35;;;;;;;10.50;6.10;;;-6.00;99.90;;;;;;5071697;28;20236;-74
2023/02/09 02:20:43;;;;;;;9.13;5.72;;;-6.00;99.90;;;;;;5071143;28;20208;-74
2023/02/09 02:23:20;;;;;;;11.13;6.45;;;-6.00;99.90;;;;;;5071625;28;20218;-75
2023/02/09 02:26:31;;;;;;;10.90;5.93;;;-6.00;99.90;;;;;;5071760;28;20250;-75
2023/02/09 02:29:28;;;;;;;9.93;4.40;;;-6.00;99.90;;;;;;5062499;28;20200;-75
2023/02/09 02:32:09;;;;;;;9.27;5.25;;;-6.10;99.90;;;;;;5043207;28;20204;-75
2023/02/09 02:34:44;;;;;;;10.38;6.65;;;-6.10;99.90;;;;;;5071433;28;20200;-75
2023/02/09 02:37:22;;;;;;;7.45;4.40;;;-6.10;99.90;;;;;;5070817;28;20235;-75
2023/02/09 02:39:57;;;;;;;12.75;6.10;;;-6.10;99.90;;;;;;5070855;28;20192;-74
2023/02/09 02:42:48;;;;;;;11.27;6.70;;;-6.10;99.90;;;;;;5071606;28;20572;-75
2023/02/09 02:45:25;;;;;;;14.20;6.55;;;-6.10;99.90;;;;;;5071640;28;20211;-75
2023/02/09 02:48:00;;;;;;;8.50;4.80;;;-6.20;99.90;;;;;;5071528;28;20215;-75
2023/02/09 02:50:30;;;;;;;8.75;6.72;;;-6.20;99.90;;;;;;5070752;28;20597;-75
2023/02/09 02:53:01;;;;;;;11.98;5.70;;;-6.30;99.90;;;;;;5071681;28;20207;-75
2023/02/09 02:55:31;;;;;;;10.80;5.93;;;-6.30;99.90;;;;;;5072101;28;20208;-73
2023/02/09 02:58:03;;;;;;;13.65;6.25;;;-6.30;99.90;;;;;;5071814;28;20223;-76
2023/02/09 03:00:34;;;;;;;9.70;6.15;;;-6.30;99.90;;;;;;5071177;28;20204;-76
2023/02/09 03:03:06;;;;;;;10.90;5.93;;;-6.30;99.90;;;;;;5071242;28;20209;-75
2023/02/09 03:05:33;;;;;;;14.35;6.93;;;-6.30;99.90;;;;;;5072017;28;20211;-74
2023/02/09 03:08:00;;;;;;;6.65;5.57;;;-6.30;99.90;;;;;;5071464;28;20201;-75
2023/02/09 03:10:31;;;;;;;6.43;5.47;;;-6.30;99.90;;;;;;5071035;28;20228;-76
2023/02/09 03:13:20;;;;;;;8.05;5.45;;;-6.30;99.90;;;;;;5071320;28;20208;-76
2023/02/09 03:16:02;;;;;;;12.35;5.95;;;-6.30;99.90;;;;;;5071219;28;20591;-75
2023/02/09 03:18:35;;;;;;;9.00;5.30;;;-6.30;99.90;;;;;;5070692;28;20250;-75
2023/02/09 03:21:11;;;;;;;8.05;5.10;;;-6.30;99.90;;;;;;5070911;28;20200;-76
2023/02/09 03:23:44;;;;;;;12.50;5.72;;;-6.30;99.90;;;;;;5070984;28;20582;-75
2023/02/09 03:26:18;;;;;;;10.32;6.97;;;-6.30;99.90;;;;;;5070910;28;20233;-75
2023/02/09 03:28:48;;;;;;;10.20;6.68;;;-6.40;99.90;;;;;;5070748;28;20214;-75
2023/02/09 03:31:16;;;;;;;8.55;5.15;;;-6.30;99.90;;;;;;5070606;28;20232;-76
2023/02/09 03:33:44;;;;;;;10.82;6.10;;;-6.40;99.90;;;;;;5070815;28;20219;-76
2023/02/09 03:36:15;;;;;;;15.82;7.05;;;-6.40;99.90;;;;;;5070874;28;20228;-75
2023/02/09 03:38:41;;;;;;;11.10;6.18;;;-6.40;99.90;;;;;;5070390;28;20200;-76
2023/02/09 03:41:08;;;;;;;13.63;6.07;;;-6.40;99.90;;;;;;5070432;28;20344;-75
2023/02/09 03:46:28;;;;;;;7.40;5.43;;;-6.50;99.90;;;;;;5022885;28;20792;-75
2023/02/09 03:48:56;;;;;;;9.63;6.20;;;-6.50;99.90;;;;;;5070867;28;20675;-76
2023/02/09 03:51:23;;;;;;;10.25;5.32;;;-6.50;99.90;;;;;;5075052;28;20220;-75
2023/02/09 03:53:50;;;;;;;7.35;4.65;;;-6.50;99.90;;;;;;5074795;28;20676;-75
2023/02/09 03:56:16;;;;;;;10.77;6.35;;;-6.50;99.90;;;;;;5074487;28;20593;-75
2023/02/09 03:58:43;;;;;;;9.30;6.03;;;-6.50;99.90;;;;;;5076961;28;20223;-74
2023/02/09 04:01:11;;;;;;;14.15;6.82;;;-6.50;99.90;;;;;;5077270;28;20307;-74
2023/02/09 04:03:39;;;;;;;10.20;5.70;;;-6.50;99.90;;;;;;5077619;28;20201;-75
2023/02/09 04:06:08;;;;;;;10.10;5.28;;;-6.50;99.90;;;;;;5077513;28;20224;-74
2023/02/09 04:08:36;;;;;;;10.95;6.40;;;-6.50;99.90;;;;;;5077033;28;20254;-74
2023/02/09 04:11:03;;;;;;;14.40;8.13;;;-6.50;99.90;;;;;;5074982;28;20227;-75
2023/02/09 04:13:30;;;;;;;15.48;5.35;;;-6.40;99.90;;;;;;5074341;28;20296;-74
2023/02/09 04:15:57;;;;;;;9.75;5.93;;;-6.40;99.90;;;;;;5074252;28;20267;-74
2023/02/09 04:18:23;;;;;;;14.90;7.47;;;-6.50;99.90;;;;;;5073503;28;20205;-74
2023/02/09 04:20:50;;;;;;;18.75;7.80;;;-6.50;99.90;;;;;;5074114;28;20193;-75
2023/02/09 04:23:18;;;;;;;17.65;6.70;;;-6.50;99.90;;;;;;5073635;28;20298;-74
2023/02/09 04:25:45;;;;;;;13.38;7.55;;;-6.50;99.90;;;;;;5073623;28;20244;-75
2023/02/09 04:28:11;;;;;;;12.63;7.38;;;-6.60;99.90;;;;;;5073318;28;20621;-75
2023/02/09 04:30:38;;;;;;;14.05;6.80;;;-6.60;99.90;;;;;;5073491;28;20220;-74
2023/02/09 04:33:05;;;;;;;24.13;7.60;;;-6.60;99.90;;;;;;5073497;28;20314;-74
2023/02/09 04:35:32;;;;;;;14.95;6.43;;;-6.70;99.90;;;;;;5073384;28;20200;-76
2023/02/09 04:37:58;;;;;;;14.80;7.82;;;-6.70;99.90;;;;;;5073408;28;20207;-75
2023/02/09 04:40:26;;;;;;;8.95;6.38;;;-6.70;99.90;;;;;;5072907;28;20200;-75
2023/02/09 04:42:53;;;;;;;13.50;6.45;;;-6.70;99.90;;;;;;5073417;28;20201;-75
2023/02/09 04:45:20;;;;;;;17.42;6.97;;;-6.70;99.90;;;;;;5073384;28;20212;-75
2023/02/09 04:47:46;;;;;;;11.50;7.18;;;-6.70;99.90;;;;;;5073375;28;20224;-75
2023/02/09 04:50:13;;;;;;;11.85;5.93;;;-6.70;99.90;;;;;;5072478;28;20228;-76
2023/02/09 04:52:40;;;;;;;11.20;5.68;;;-6.80;99.90;;;;;;5073317;28;20197;-75
2023/02/09 04:55:07;;;;;;;17.63;7.18;;;-6.70;99.90;;;;;;5073044;28;20212;-75
2023/02/09 05:00:20;;;;;;;14.88;7.25;;;-6.70;99.90;;;;;;5072053;28;20245;-75
2023/02/09 05:02:47;;;;;;;10.50;6.30;;;-6.60;99.90;;;;;;5072735;28;20208;-76
2023/02/09 05:05:13;;;;;;;13.52;7.25;;;-6.60;99.90;;;;;;5072760;28;20208;-75
2023/02/09 05:07:40;;;;;;;10.98;5.45;;;-6.60;99.90;;;;;;5072973;28;20216;-76
2023/02/09 05:10:07;;;;;;;10.00;6.50;;;-6.60;99.90;;;;;;5072491;28;20220;-75
2023/02/09 05:12:35;;;;;;;17.15;6.72;;;-6.60;99.90;;;;;;5072943;28;20200;-75
2023/02/09 05:15:02;;;;;;;19.33;7.75;;;-6.60;99.90;;;;;;5073214;28;20197;-74
2023/02/09 05:17:31;;;;;;;26.20;8.30;;;-6.70;99.90;;;;;;5072994;28;20231;-76
2023/02/09 05:19:58;;;;;;;22.67;7.68;;;-6.70;99.90;;;;;;5072650;28;20287;-76
2023/02/09 05:22:24;;;;;;;17.60;8.20;;;-6.70;99.90;;;;;;5073020;28;20208;-74
2023/02/09 05:24:51;;;;;;;12.32;5.63;;;-6.80;99.90;;;;;;5072509;28;20707;-76
2023/02/09 05:27:18;;;;;;;12.23;7.07;;;-6.80;99.90;;;;;;5072648;28;20635;-75
2023/02/09 05:29:46;;;;;;;15.63;6.70;;;-6.80;99.90;;;;;;5071970;28;20211;-75
2023/02/09 05:32:13;;;;;;;12.15;7.20;;;-6.80;99.90;;;;;;5072460;28;20213;-75
2023/02/09 05:34:39;;;;;;;10.32;6.97;;;-6.80;99.90;;;;;;5072447;28;20207;-74
2023/02/09 05:37:06;;;;;;;14.07;7.43;;;-6.90;99.90;;;;;;5072396;28;20231;-75
2023/02/09 05:39:33;;;;;;;16.17;7.97;;;-6.90;99.90;;;;;;5071878;28;20201;-75
2023/02/09 05:42:14;;;;;;;6.70;5.38;;;-6.90;99.90;;;;;;5072448;28;20201;-75
2023/02/09 05:44:42;;;;;;;9.60;6.28;;;-6.90;99.90;;;;;;5072876;28;20200;-76
2023/02/09 05:47:10;;;;;;;13.93;7.68;;;-6.80;99.90;;;;;;5072133;28;20239;-76
2023/02/09 05:49:37;;;;;;;14.65;7.10;;;-6.90;99.90;;;;;;5071666;28;20205;-76
2023/02/09 05:52:04;;;;;;;16.35;7.65;;;-6.80;99.90;;;;;;5072029;28;20227;-75
2023/02/09 05:54:31;;;;;;;11.50;6.50;;;-6.90;99.90;;;;;;5072289;28;20201;-75
2023/02/09 05:56:58;;;;;;;9.73;7.38;;;-6.90;99.90;;;;;;5071769;28;20282;-74
2023/02/09 05:59:24;;;;;;;14.75;6.85;;;-6.90;99.90;;;;;;5071707;28;20604;-75
2023/02/09 06:01:51;;;;;;;25.42;9.52;;;-6.90;99.90;;;;;;5072085;28;20193;-76
2023/02/09 06:04:19;;;;;;;13.35;7.00;;;-6.90;99.90;;;;;;5072024;28;20205;-76
2023/02/09 06:06:46;;;;;;;14.40;6.80;;;-6.90;99.90;;;;;;5071734;28;20220;-76
2023/02/09 06:09:13;;;;;;;13.95;7.00;;;-6.90;99.90;;;;;;5071436;28;20208;-75
2023/02/09 06:11:40;;;;;;;13.38;6.50;;;-6.90;99.90;;;;;;5071923;28;20228;-76
2023/02/09 06:14:07;;;;;;;13.25;7.18;;;-7.00;99.90;;;;;;5070665;28;20209;-76
2023/02/09 06:16:33;;;;;;;13.02;6.55;;;-7.00;99.90;;;;;;5071697;28;20613;-75
2023/02/09 06:19:00;;;;;;;10.73;6.18;;;-7.00;99.90;;;;;;5071089;28;20204;-76
2023/02/09 06:21:28;;;;;;;9.40;7.22;;;-7.00;99.90;;;;;;5071668;28;20196;-76
2023/02/09 06:23:55;;;;;;;6.97;5.43;;;-7.00;99.90;;;;;;5071621;28;20204;-76
2023/02/09 06:26:22;;;;;;;11.30;6.05;;;-7.10;99.90;;;;;;5072249;28;20726;-75
2023/02/09 06:28:49;;;;;;;9.30;6.47;;;-7.00;99.90;;;;;;5073265;28;20200;-75
2023/02/09 06:31:15;;;;;;;18.33;8.13;;;-7.10;99.90;;;;;;5073629;28;20232;-75
2023/02/09 06:33:42;;;;;;;10.18;6.75;;;-7.10;99.90;;;;;;5073955;28;20204;-75
2023/02/09 06:36:10;;;;;;;13.15;6.80;;;-7.10;99.90;;;;;;5073763;28;20227;-77
2023/02/09 06:38:38;;;;;;;16.05;6.03;;;-7.10;99.90;;;;;;5073404;28;20478;-74
2023/02/09 06:41:06;;;;;;;10.85;7.18;;;-7.10;99.90;;;;;;5072339;28;20222;-74
2023/02/09 06:43:33;;;;;;;14.65;9.18;;;-7.10;99.90;;;;;;5072059;28;20205;-76
2023/02/09 06:46:06;;;;;;;18.30;9.23;;;-6.90;99.90;;;;;;5071395;28;20220;-74
2023/02/09 06:48:32;;;;;;;18.23;7.38;;;-6.80;99.90;;;;;;5071706;28;20273;-74
2023/02/09 06:50:59;;;;;;;12.02;6.53;;;-6.80;99.90;;;;;;5072551;28;20222;-74
2023/02/09 06:53:26;;;;;;;9.07;7.63;;;-6.70;99.90;;;;;;5072666;28;20208;-75
2023/02/09 06:55:59;;;;;;;10.45;7.20;;;-6.60;99.90;;;;;;5071709;28;20227;-75
2023/02/09 06:58:26;;;;;;;8.57;6.15;;;-6.60;99.90;;;;;;5071120;28;20204;-75
2023/02/09 07:00:53;;;;;;;16.75;8.65;;;-6.60;99.90;;;;;;5070866;28;20287;-75
2023/02/09 07:03:19;;;;;;;19.98;9.48;;;-6.50;99.90;;;;;;5070740;28;20196;-75
2023/02/09 07:05:46;;;;;;;15.45;8.45;;;-6.50;99.90;;;;;;5068728;28;20220;-74
2023/02/09 07:08:13;;;;;;;23.73;8.73;;;-6.50;99.90;;;;;;5071348;28;20200;-74
2023/02/09 07:10:40;;;;;;;13.82;8.32;;;-6.40;99.90;;;;;;5072024;28;20228;-76
2023/02/09 07:13:08;;;;;;;13.18;8.18;;;-6.30;99.90;;;;;;5071911;28;20207;-74
2023/02/09 07:15:35;;;;;;;11.98;7.65;;;-6.30;99.90;;;;;;5071164;28;20208;-75
2023/02/09 07:18:02;;;;;;;15.57;8.15;;;-6.20;99.90;;;;;;5069569;28;20199;-75
2023/02/09 07:20:28;;;;;;;12.27;7.70;;;-6.10;99.90;;;;;;5067789;28;20201;-74
2023/02/09 07:22:55;;;;;;;19.40;10.05;;;-6.00;99.90;;;;;;5068091;28;20201;-74
2023/02/09 07:25:22;;;;;;;14.90;8.20;;;-6.00;99.90;;;;;;5068635;28;20636;-75
2023/02/09 07:27:48;;;;;;;14.07;8.20;;;-5.80;99.90;;;;;;5069911;28;20203;-75
2023/02/09 07:30:17;;;;;;;16.60;8.32;;;-5.80;99.90;;;;;;5069833;28;20211;-74
2023/02/09 07:32:44;;;;;;;16.05;8.43;;;-5.70;99.90;;;;;;5071099;28;20200;-73
2023/02/09 07:35:10;;;;;;;15.13;7.85;;;-5.60;99.90;;;;;;5070835;28;20204;-74
2023/02/09 07:37:37;;;;;;;14.82;8.60;;;-5.50;99.90;;;;;;5070833;28;20247;-74
2023/02/09 07:40:04;;;;;;;15.05;8.45;;;-5.50;99.90;;;;;;5070134;28;20204;-74
2023/02/09 07:42:31;;;;;;;12.32;7.65;;;-5.40;99.90;;;;;;5071370;28;20205;-73
2023/02/09 07:44:58;;;;;;;17.00;8.48;;;-5.20;99.90;;;;;;5071047;28;20219;-74
2023/02/09 07:47:26;;;;;;;17.98;8.65;;;-5.10;99.90;;;;;;5070801;28;20711;-73
2023/02/09 07:49:53;;;;;;;15.30;9.82;;;-5.00;99.90;;;;;;5070434;28;20222;-73
2023/02/09 07:52:20;;;;;;;17.90;9.20;;;-4.80;99.90;;;;;;5070748;28;20226;-74
2023/02/09 07:54:48;;;;;;;23.30;11.80;;;-4.10;99.90;;;;;;5070879;28;20196;-75
2023/02/09 07:57:15;;;;;;;22.48;10.38;;;-2.90;99.90;;;;;;5071104;28;20231;-75
2023/02/09 07:59:42;;;;;;;17.23;12.50;;;-1.60;99.90;;;;;;5070287;28;20204;-75
2023/02/09 08:02:18;;;;;;;16.05;10.20;;;-0.20;99.90;;;;;;5070549;28;20197;-75
2023/02/09 08:04:46;;;;;;;16.58;10.32;;;1.10;99.90;;;;;;5070669;28;20298;-75
2023/02/09 08:07:13;;;;;;;15.75;10.20;;;2.40;99.90;;;;;;5070385;28;20278;-74
2023/02/09 08:09:43;;;;;;;15.63;10.80;;;3.20;99.90;;;;;;5070122;28;20197;-75
2023/02/09 08:12:10;;;;;;;17.30;9.88;;;3.30;99.30;;;;;;5066012;28;20744;-74
2023/02/09 08:14:43;;;;;;;20.65;12.45;;;3.00;99.00;;;;;;5070716;28;20204;-75
2023/02/09 08:17:23;;;;;;;15.90;10.40;;;2.80;99.20;;;;;;5079417;28;20611;-75
2023/02/09 08:19:56;;;;;;;16.85;10.70;;;3.30;99.60;;;;;;5090243;28;20302;-74
2023/02/09 08:22:25;;;;;;;21.33;11.88;;;4.30;99.00;;;;;;5089854;28;20686;-74
2023/02/09 08:24:52;;;;;;;16.20;10.38;;;5.00;98.10;;;;;;5090102;28;20691;-74
2023/02/09 08:27:19;;;;;;;18.17;11.05;;;5.60;96.60;;;;;;5089630;28;20702;-74
2023/02/09 08:29:46;;;;;;;18.30;10.45;;;5.40;95.60;;;;;;5089760;28;20192;-75
2023/02/09 08:32:13;;;;;;;15.95;12.65;;;4.60;95.50;;;;;;5090660;28;20216;-75
2023/02/09 08:34:39;;;;;;;17.63;11.15;;;4.70;96.10;;;;;;5091234;28;20199;-75
2023/02/09 08:37:07;;;;;;;15.52;10.77;;;4.80;95.50;;;;;;5093425;28;20702;-75
2023/02/09 08:39:34;;;;;;;22.38;13.32;;;4.40;95.50;;;;;;5094547;28;20200;-75
2023/02/09 08:42:01;;;;;;;17.60;12.27;;;4.40;95.90;;;;;;5082468;28;20196;-74
2023/02/09 08:44:27;;;;;;;20.25;11.85;;;5.00;96.10;;;;;;5074259;28;20667;-75
2023/02/09 08:46:54;;;;;;;16.33;10.07;;;5.50;94.60;;;;;;5080179;28;20222;-74
2023/02/09 08:49:21;;;;;;;17.65;11.52;;;5.60;94.30;;;;;;5086683;28;20814;-75
2023/02/09 08:51:48;;;;;;;14.50;10.23;;;6.10;93.80;;;;;;5074610;28;20714;-75
2023/02/09 08:54:16;;;;;;;18.92;12.02;;;6.50;93.60;;;;;;5074022;28;20212;-75
2023/02/09 08:56:43;;;;;;;17.92;12.00;;;7.20;93.00;;;;;;5073398;28;20709;-75
2023/02/09 08:59:10;;;;;;;17.92;11.85;;;8.00;92.30;;;;;;5073866;28;20675;-75
2023/02/09 09:01:39;;;;;;;18.25;12.25;;;9.10;90.50;;;;;;5073932;28;20221;-73
2023/02/09 09:04:06;;;;;;;15.52;11.35;;;9.40;89.90;;;;;;5074039;28;20204;-74
2023/02/09 09:06:32;;;;;;;18.75;11.75;;;9.60;88.40;;;;;;5074487;28;20227;-74
2023/02/09 09:09:00;;;;;;;18.30;12.48;;;10.00;86.60;;;;;;5073208;28;20658;-75
2023/02/09 09:11:28;;;;;;;14.40;10.95;;;10.20;84.40;;;;;;5073413;28;20319;-75
2023/02/09 09:13:55;;;;;;;15.90;10.95;;;10.20;84.50;;;;;;5074008;28;20203;-75
2023/02/09 09:16:22;;;;;;;21.10;12.80;;;10.30;83.40;;;;;;5074278;28;20231;-75
2023/02/09 09:18:50;;;;;;;17.02;11.65;;;10.10;83.40;;;;;;5073139;28;20246;-74
2023/02/09 09:21:18;;;;;;;16.95;11.27;;;9.80;84.90;;;;;;5072334;28;20216;-74
2023/02/09 09:23:46;;;;;;;16.45;11.63;;;10.00;84.00;;;;;;5073215;28;20211;-75
2023/02/09 09:26:12;;;;;;;17.70;12.70;;;11.00;82.50;;;;;;5072754;28;20266;-74
2023/02/09 09:28:41;;;;;;;18.23;13.45;;;12.10;81.10;;;;;;5072628;28;20211;-74
2023/02/09 09:31:09;;;;;;;17.63;11.95;;;12.50;81.20;;;;;;5072091;28;20192;-74
2023/02/09 09:33:36;;;;;;;21.85;13.18;;;12.80;77.70;;;;;;5072301;28;20203;-74
2023/02/09 09:36:04;;;;;;;19.80;12.90;;;12.80;76.90;;;;;;5072124;28;20220;-74
2023/02/09 09:38:31;;;;;;;18.92;12.90;;;13.40;76.40;;;;;;5072279;28;20196;-75
2023/02/09 09:40:58;;;;;;;17.65;11.82;;;14.20;77.10;;;;;;5072197;28;20204;-74
2023/02/09 09:43:31;;;;;;;17.05;11.27;;;15.00;74.20;;;;;;5073230;28;20200;-73
2023/02/09 09:46:00;;;;;;;21.17;13.32;;;15.10;73.10;;;;;;5072187;28;20228;-74
2023/02/09 09:48:36;;;;;;;17.98;12.75;;;14.90;72.30;;;;;;5071557;28;20211;-73
2023/02/09 09:51:11;;;;;;;21.20;12.77;;;15.00;72.80;;;;;;5071698;28;20203;-76
2023/02/09 09:53:40;;;;;;;16.63;12.35;;;15.60;72.70;;;;;;5072323;28;20206;-74
2023/02/09 09:56:09;;;;;;;16.30;12.13;;;16.40;72.40;;;;;;5071330;28;20242;-74
2023/02/09 09:58:41;;;;;;;21.00;12.90;;;16.70;71.60;;;;;;5071073;28;20618;-74
2023/02/09 10:01:13;;;;;;;15.90;12.10;;;16.50;69.90;;;;;;5071677;28;20451;-73
2023/02/09 10:03:40;;;;;;;19.17;13.33;;;16.30;71.00;;;;;;5071624;28;20539;-74
2023/02/09 10:06:14;;;;;;;17.33;12.80;;;16.40;71.60;;;;;;5071226;28;20481;-73
2023/02/09 10:08:45;;;;;;;20.97;13.43;;;17.20;70.50;;;;;;5070929;28;20469;-73
2023/02/09 10:11:15;;;;;;;19.17;12.10;;;17.30;69.50;;;;;;5067641;28;20535;-73
2023/02/09 10:13:44;;;;;;;16.30;12.80;;;17.30;69.70;;;;;;5050516;28;20478;-73
2023/02/09 10:16:17;;;;;;;21.67;14.53;;;17.10;69.80;;;;;;5059729;28;20877;-73
2023/02/09 10:18:44;;;;;;;18.90;13.47;;;17.60;67.80;;;;;;5068871;28;20459;-73
2023/02/09 10:21:12;;;;;;;19.40;13.00;;;17.80;67.20;;;;;;5058885;28;20454;-74
2023/02/09 10:23:41;;;;;;;16.90;13.03;;;17.50;68.90;;;;;;5071497;28;20460;-73
2023/02/09 10:26:23;;;;;;;20.27;13.07;;;17.70;67.70;;;;;;5073498;28;20506;-74
2023/02/09 10:28:52;;;;;;;18.10;13.03;;;16.90;68.90;;;;;;5073536;28;20458;-73
2023/02/09 10:31:24;;;;;;;17.87;13.13;;;17.60;67.40;;;;;;5073300;28;20891;-74
2023/02/09 10:33:56;;;;;;;21.67;13.33;;;17.80;66.10;;;;;;5071666;28;20465;-74
2023/02/09 10:36:26;;;;;;;19.00;13.50;;;18.20;66.90;;;;;;5070964;28;20479;-74
2023/02/09 10:39:02;;;;;;;17.83;12.30;;;18.50;66.90;;;;;;5070274;28;20549;-73
2023/02/09 10:41:31;;;;;;;14.10;11.57;;;18.10;65.40;;;;;;5070261;28;20458;-74
2023/02/09 10:43:58;;;;;;;16.07;12.60;;;18.60;65.20;;;;;;5070559;28;20463;-73
2023/02/09 10:46:26;;;;;;;15.03;11.90;;;18.70;64.60;;;;;;5070778;28;20497;-73
2023/02/09 10:48:54;;;;;;;18.20;13.00;;;19.10;62.60;;;;;;5069993;28;20508;-73
2023/02/09 10:51:27;;;;;;;17.10;12.50;;;18.80;63.90;;;;;;5070499;28;20457;-73
2023/02/09 10:54:01;;;;;;;17.50;13.03;;;18.80;64.70;;;;;;5051778;28;20961;-72
2023/02/09 10:56:34;;;;;;;19.27;13.50;;;18.60;62.80;;;;;;5058888;28;20470;-73
2023/02/09 10:59:03;;;;;;;16.50;13.00;;;18.30;64.30;;;;;;5069381;28;20464;-73
2023/02/09 11:01:40;;;;;;;19.30;12.47;;;18.40;64.50;;;;;;5066201;28;20495;-73
2023/02/09 11:04:18;;;;;;;15.80;13.47;;;18.00;65.80;;;;;;5050581;28;20517;-72
2023/02/09 11:06:50;;;;;;;18.20;12.57;;;18.80;64.10;;;;;;5061264;28;20514;-73
2023/02/09 11:09:20;;;;;;;16.90;13.73;;;18.10;65.70;;;;;;5070463;28;20879;-73
2023/02/09 11:11:47;;;;;;;17.40;12.63;;;18.50;64.90;;;;;;5070444;28;20466;-73
2023/02/09 11:14:16;;;;;;;16.70;13.23;;;18.20;64.90;;;;;;5056367;28;20466;-72
2023/02/09 11:16:55;;;;;;;15.60;11.80;;;18.30;63.90;;;;;;5059303;28;20998;-72
2023/02/09 11:19:44;;;;;;;16.93;12.10;;;18.00;64.00;;;;;;5068818;28;20469;-73
2023/02/09 11:22:14;;;;;;;17.00;12.67;;;18.20;63.70;;;;;;5068665;28;20463;-73
2023/02/09 11:24:58;;;;;;;16.33;11.47;;;18.40;63.40;;;;;;5069887;28;21026;-74
2023/02/09 11:27:40;;;;;;;14.30;10.57;;;18.60;62.70;;;;;;5069920;28;20510;-74
2023/02/09 11:30:19;;;;;;;14.90;12.10;;;18.70;61.90;;;;;;5072234;28;20462;-73
2023/02/09 11:32:54;;;;;;;17.13;11.57;;;18.40;63.60;;;;;;5074795;28;20512;-74
2023/02/09 11:35:26;;;;;;;17.40;12.40;;;18.80;62.60;;;;;;5069488;28;20458;-73
2023/02/09 11:37:57;;;;;;;15.47;10.97;;;18.60;62.20;;;;;;5069678;28;20459;-73
2023/02/09 11:40:28;;;;;;;17.57;11.63;;;18.50;62.20;;;;;;5069908;28;20469;-73
2023/02/09 11:43:02;;;;;;;16.90;11.20;;;17.80;62.60;;;;;;5069958;28;20459;-73
2023/02/09 11:45:34;;;;;;;16.50;12.40;;;18.10;62.30;;;;;;5070458;28;20462;-73
2023/02/09 11:48:08;;;;;;;17.73;12.13;;;18.20;62.40;;;;;;5069412;28;20828;-72
2023/02/09 11:50:42;;;;;;;18.50;12.20;;;18.70;62.00;;;;;;5069076;28;20467;-73
2023/02/09 11:53:20;;;;;;;16.47;11.70;;;18.80;62.20;;;;;;5070172;28;20577;-73
2023/02/09 11:55:52;;;;;;;15.67;12.13;;;19.00;61.80;;;;;;5068367;28;20536;-72
2023/02/09 11:58:44;;;;;;;17.00;11.77;;;19.10;61.30;;;;;;5063934;28;20471;-72
2023/02/09 12:01:20;;;;;;;15.60;11.30;;;18.90;61.90;;;;;;5068613;28;20953;-73
2023/02/09 12:04:05;;;;;;;16.43;11.40;;;18.60;62.50;;;;;;5069220;28;20946;-72
2023/02/09 12:06:37;;;;;;;16.17;11.83;;;18.40;61.30;;;;;;5068572;28;20478;-73
2023/02/09 12:09:14;;;;;;;15.90;11.97;;;18.60;61.80;;;;;;5068111;28;20458;-74
2023/02/09 12:11:59;;;;;;;16.67;12.07;;;18.80;61.30;;;;;;5070847;28;20461;-71
2023/02/09 12:14:58;;;;;;;14.70;11.80;;;18.90;60.80;;;;;;5072662;28;20450;-74
2023/02/09 12:17:31;;;;;;;13.00;10.70;;;18.50;61.70;;;;;;5070728;28;20494;-74
2023/02/09 12:20:01;;;;;;;18.10;12.50;;;19.10;60.70;;;;;;5071847;28;20467;-73
2023/02/09 12:22:52;;;;;;;12.70;10.47;;;18.40;61.90;;;;;;5072329;28;20461;-73
2023/02/09 12:25:32;;;;;;;14.33;10.93;;;18.20;62.50;;;;;;5072578;28;20462;-73
2023/02/09 12:28:13;;;;;;;13.80;11.50;;;18.50;61.10;;;;;;5072033;28;20494;-75
2023/02/09 12:30:59;;;;;;;17.43;11.30;;;18.60;60.60;;;;;;5072404;28;20832;-75
2023/02/09 12:33:30;;;;;;;14.43;10.87;;;18.30;60.80;;;;;;5072462;28;20544;-75
2023/02/09 12:36:04;;;;;;;14.07;11.63;;;18.30;60.80;;;;;;5071427;28;20517;-75
2023/02/09 12:38:45;;;;;;;20.30;12.00;;;18.40;60.80;;;;;;5071412;28;20458;-75
2023/02/09 12:41:12;;;;;;;14.43;10.33;;;17.70;61.30;;;;;;5071967;28;20493;-75
2023/02/09 12:43:40;;;;;;;13.20;10.00;;;18.00;61.40;;;;;;5071634;28;20458;-75
2023/02/09 12:46:45;;;;;;;14.00;10.30;;;17.90;61.20;;;;;;5072080;28;20478;-74
2023/02/09 12:49:31;;;;;;;13.83;9.93;;;17.70;60.80;;;;;;5070885;28;20972;-75
2023/02/09 12:52:17;;;;;;;17.80;11.07;;;17.60;59.70;;;;;;5071331;28;20502;-75
2023/02/09 12:54:47;;;;;;;13.93;11.30;;;17.50;61.80;;;;;;5072515;28;20465;-75
2023/02/09 12:57:52;;;;;;;13.40;9.47;;;18.10;60.70;;;;;;5071070;28;20479;-75